Time;durP1;ratioP1;P1;durP2;ratioP2;P2;SDS_P1;SDS_P2;PMS_P1;PMS_P2;Temp;Humidity;BMP_temperature;BMP_pressure;BME280_temperature;BME280_humidity;BME280_pressure;Samples;Min_cycle;Max_cycle;Signal;HPM_P1;HPM_P2
2021/09/19 00:00:26;;;;;;;36.78;29.50;;;;;;;9.72;100.00;95928.34;1028007;28;20014;-51
2021/09/19 00:00:57;;;;;;;38.72;30.13;;;;;;;9.70;100.00;95940.69;1031871;28;20030;-52
2021/09/19 00:01:28;;;;;;;39.85;31.67;;;;;;;9.71;100.00;95934.53;1035957;28;20453;-53
2021/09/19 00:01:58;;;;;;;40.10;31.27;;;;;;;9.70;100.00;95932.84;1031656;28;20029;-52
2021/09/19 00:02:29;;;;;;;39.13;31.33;;;;;;;9.69;100.00;95934.63;1031866;28;20018;-50
2021/09/19 00:03:00;;;;;;;36.38;29.10;;;;;;;9.69;100.00;95937.25;1031350;28;20054;-52
2021/09/19 00:03:31;;;;;;;40.53;31.23;;;;;;;9.71;100.00;95937.16;1028262;28;20492;-51
2021/09/19 00:04:01;;;;;;;38.63;30.08;;;;;;;9.72;100.00;95933.56;1027659;28;20106;-51
2021/09/19 00:04:32;;;;;;;39.03;31.10;;;;;;;9.70;100.00;95931.09;1027901;28;20029;-51
2021/09/19 00:05:03;;;;;;;36.53;29.33;;;;;;;9.73;100.00;95936.09;1031870;28;20014;-51
2021/09/19 00:05:34;;;;;;;41.45;33.13;;;;;;;9.74;100.00;95939.53;1032014;28;20111;-54
2021/09/19 00:06:05;;;;;;;43.47;32.33;;;;;;;9.73;100.00;95932.66;1035830;28;20041;-51
2021/09/19 00:06:36;;;;;;;38.58;30.95;;;;;;;9.73;100.00;95936.09;1035721;28;20029;-54
2021/09/19 00:07:06;;;;;;;41.30;31.67;;;;;;;9.72;100.00;95936.19;1031896;28;20023;-51
2021/09/19 00:07:37;;;;;;;39.50;31.40;;;;;;;9.71;100.00;95935.34;1035955;28;20049;-51
2021/09/19 00:08:07;;;;;;;43.65;32.30;;;;;;;9.71;100.00;95934.53;1039958;28;20167;-51
2021/09/19 00:08:38;;;;;;;39.22;30.02;;;;;;;9.70;100.00;95936.31;1035727;28;20108;-51
2021/09/19 00:09:09;;;;;;;38.72;30.30;;;;;;;9.70;100.00;95938.94;1031836;28;20022;-50
2021/09/19 00:09:39;;;;;;;41.33;30.50;;;;;;;9.68;100.00;95929.50;1035801;28;20480;-51
2021/09/19 00:10:11;;;;;;;40.40;31.95;;;;;;;9.69;100.00;95932.00;1035789;28;20050;-51
2021/09/19 00:10:42;;;;;;;39.83;32.50;;;;;;;9.68;100.00;95926.88;1035951;28;20017;-51
2021/09/19 00:11:13;;;;;;;39.30;31.73;;;;;;;9.66;100.00;95934.81;1035732;28;20252;-51
2021/09/19 00:11:44;;;;;;;39.95;31.63;;;;;;;9.69;100.00;95933.78;1031584;28;20265;-51
2021/09/19 00:12:15;;;;;;;42.58;32.70;;;;;;;9.69;100.00;95933.78;1032015;28;20030;-51
2021/09/19 00:12:46;;;;;;;43.38;32.22;;;;;;;9.68;100.00;95934.72;1031815;28;20261;-54
2021/09/19 00:13:17;;;;;;;43.58;33.38;;;;;;;9.65;100.00;95938.41;1032222;28;20022;-51
2021/09/19 00:13:47;;;;;;;43.63;32.78;;;;;;;9.68;100.00;95942.56;1035772;28;20025;-52
2021/09/19 00:14:18;;;;;;;43.85;32.95;;;;;;;9.67;100.00;95933.91;1031874;28;20117;-52
2021/09/19 00:14:49;;;;;;;49.15;34.30;;;;;;;9.66;100.00;95937.44;1031930;28;20053;-52
2021/09/19 00:15:19;;;;;;;44.53;33.95;;;;;;;9.65;100.00;95933.16;1031843;28;20575;-51
2021/09/19 00:15:50;;;;;;;47.63;35.17;;;;;;;9.65;100.00;95935.78;1031788;28;20498;-53
2021/09/19 00:16:21;;;;;;;50.45;35.95;;;;;;;9.63;100.00;95934.19;1035628;28;20128;-51
2021/09/19 00:16:52;;;;;;;47.70;34.25;;;;;;;9.62;100.00;95932.53;1035760;28;20017;-51
2021/09/19 00:17:23;;;;;;;52.28;36.88;;;;;;;9.60;100.00;95930.00;1032207;28;20076;-52
2021/09/19 00:17:53;;;;;;;50.95;36.78;;;;;;;9.60;100.00;95927.38;1035854;28;20053;-51
2021/09/19 00:18:24;;;;;;;52.72;38.20;;;;;;;9.62;100.00;95938.59;1031450;28;20018;-50
2021/09/19 00:18:55;;;;;;;53.40;36.83;;;;;;;9.62;100.00;95932.53;1035780;28;20029;-51
2021/09/19 00:19:25;;;;;;;52.28;36.92;;;;;;;9.62;100.00;95933.34;1035582;28;20018;-51
2021/09/19 00:19:56;;;;;;;53.95;38.65;;;;;;;9.61;100.00;95933.44;1027609;28;20170;-54
2021/09/19 00:20:27;;;;;;;48.65;35.38;;;;;;;9.60;100.00;95931.78;1027756;28;20118;-52
2021/09/19 00:20:58;;;;;;;50.97;37.17;;;;;;;9.63;100.00;95939.41;1031626;28;20061;-51
2021/09/19 00:21:28;;;;;;;55.47;38.28;;;;;;;9.62;100.00;95943.00;1027631;28;20019;-51
2021/09/19 00:21:59;;;;;;;50.38;36.25;;;;;;;9.60;100.00;95929.19;1031614;28;20034;-51
2021/09/19 00:22:32;;;;;;;51.78;37.22;;;;;;;9.58;100.00;95939.75;1031806;28;20022;-51
2021/09/19 00:23:03;;;;;;;46.95;36.28;;;;;;;9.58;100.00;95936.28;1036540;28;20631;-52
2021/09/19 00:23:33;;;;;;;42.88;34.97;;;;;;;9.59;100.00;95933.59;1040153;28;20298;-51
2021/09/19 00:24:04;;;;;;;42.78;33.40;;;;;;;9.58;100.00;95941.53;1035598;28;20072;-51
2021/09/19 00:24:35;;;;;;;43.53;33.60;;;;;;;9.56;100.00;95939.00;1031575;28;20129;-54
2021/09/19 00:25:06;;;;;;;45.53;33.63;;;;;;;9.55;100.00;95937.31;1031818;28;20073;-51
2021/09/19 00:25:37;;;;;;;44.58;33.78;;;;;;;9.53;100.00;95934.81;1035912;28;20037;-51
2021/09/19 00:26:08;;;;;;;45.17;34.30;;;;;;;9.53;100.00;95942.66;1040065;28;20593;-51
2021/09/19 00:26:38;;;;;;;43.75;32.88;;;;;;;9.52;100.00;95942.78;1043595;28;20020;-52
2021/09/19 00:27:09;;;;;;;50.03;34.38;;;;;;;9.51;100.00;95936.69;1035755;28;20022;-51
2021/09/19 00:27:40;;;;;;;46.47;34.15;;;;;;;9.50;100.00;95935.03;1039848;28;20108;-51
2021/09/19 00:28:11;;;;;;;44.60;35.95;;;;;;;9.50;100.00;95940.25;1039778;28;20080;-52
2021/09/19 00:28:41;;;;;;;43.65;33.45;;;;;;;9.51;100.00;95938.47;1031447;28;20113;-53
2021/09/19 00:29:12;;;;;;;41.15;33.80;;;;;;;9.50;100.00;95944.66;1027620;28;20121;-51
2021/09/19 00:29:43;;;;;;;51.60;35.03;;;;;;;9.49;100.00;95940.34;1023669;29;20029;-53
2021/09/19 00:30:14;;;;;;;50.78;36.00;;;;;;;9.44;100.00;95924.97;1024488;28;20041;-51
2021/09/19 00:30:45;;;;;;;41.10;32.97;;;;;;;9.48;100.00;95944.75;1023785;28;20034;-53
2021/09/19 00:31:15;;;;;;;45.10;34.38;;;;;;;9.46;100.00;95938.78;1028232;28;20106;-51
2021/09/19 00:31:46;;;;;;;47.92;34.95;;;;;;;9.45;100.00;95942.31;1031585;28;20443;-51
2021/09/19 00:32:17;;;;;;;46.92;32.90;;;;;;;9.45;100.00;95942.31;1027958;28;20492;-51
2021/09/19 00:32:48;;;;;;;44.42;32.97;;;;;;;9.46;100.00;95945.78;1039070;28;20406;-51
2021/09/19 00:33:18;;;;;;;40.53;32.35;;;;;;;9.47;100.00;95945.66;1035014;28;20113;-51
2021/09/19 00:33:49;;;;;;;46.45;34.25;;;;;;;9.47;100.00;95950.91;1031764;28;20088;-54
2021/09/19 00:34:20;;;;;;;46.25;32.85;;;;;;;9.47;100.00;95942.22;1031619;28;20018;-52
2021/09/19 00:34:51;;;;;;;43.35;33.88;;;;;;;9.46;100.00;95949.25;1027724;28;20508;-51
2021/09/19 00:35:21;;;;;;;44.35;33.15;;;;;;;9.47;100.00;95950.06;1032024;28;20422;-52
2021/09/19 00:35:52;;;;;;;40.88;32.95;;;;;;;9.47;100.00;95947.47;1031815;28;20105;-51
2021/09/19 00:36:23;;;;;;;43.15;34.22;;;;;;;9.46;100.00;95949.25;1031582;28;20536;-51
2021/09/19 00:36:54;;;;;;;47.83;34.40;;;;;;;9.45;100.00;95947.56;1035646;28;20025;-52
2021/09/19 00:37:24;;;;;;;46.30;34.13;;;;;;;9.46;100.00;95941.41;1027564;28;20050;-52
2021/09/19 00:37:56;;;;;;;42.95;33.45;;;;;;;9.43;100.00;95936.34;1027668;28;20067;-54
2021/09/19 00:38:26;;;;;;;44.40;32.67;;;;;;;9.47;100.00;95945.66;1027842;28;20511;-51
2021/09/19 00:38:57;;;;;;;44.47;33.58;;;;;;;9.46;100.00;95946.63;1032019;28;20297;-50
2021/09/19 00:39:28;;;;;;;38.83;31.08;;;;;;;9.45;100.00;95944.94;1024032;28;20460;-51
2021/09/19 00:39:58;;;;;;;39.97;32.30;;;;;;;9.46;100.00;95945.78;1023761;28;20037;-50
2021/09/19 00:40:30;;;;;;;39.75;31.90;;;;;;;9.46;100.00;95941.41;1023545;29;20058;-54
2021/09/19 00:41:00;;;;;;;43.83;32.92;;;;;;;9.46;100.00;95946.63;1024189;28;20520;-51
2021/09/19 00:41:31;;;;;;;43.30;32.03;;;;;;;9.44;100.00;95943.28;1027949;28;20368;-51
2021/09/19 00:42:02;;;;;;;43.55;33.60;;;;;;;9.44;100.00;95942.41;1027521;28;20031;-52
2021/09/19 00:42:32;;;;;;;45.85;34.38;;;;;;;9.44;100.00;95945.03;1023564;28;20038;-52
2021/09/19 00:43:03;;;;;;;42.70;32.22;;;;;;;9.41;100.00;95935.63;1027270;28;20018;-50
2021/09/19 00:43:34;;;;;;;41.95;32.60;;;;;;;9.44;100.00;95938.03;1027363;28;20441;-52
2021/09/19 00:44:06;;;;;;;41.20;31.15;;;;;;;9.45;100.00;95944.94;1028063;28;20374;-51
2021/09/19 00:44:36;;;;;;;41.72;32.55;;;;;;;9.44;100.00;95940.66;1031857;28;20034;-51
2021/09/19 00:45:09;;;;;;;36.97;31.17;;;;;;;9.44;100.00;95940.66;1036020;28;20265;-51
2021/09/19 00:45:40;;;;;;;41.25;30.92;;;;;;;9.45;100.00;95931.88;1035584;28;20034;-50
2021/09/19 00:46:11;;;;;;;39.42;31.63;;;;;;;9.46;100.00;95927.47;1028050;28;20094;-50
2021/09/19 00:46:42;;;;;;;39.67;30.83;;;;;;;9.49;100.00;95935.94;1023491;29;20023;-51
2021/09/19 00:47:13;;;;;;;36.10;28.88;;;;;;;9.51;100.00;95933.22;1023462;29;20071;-51
2021/09/19 00:47:44;;;;;;;35.67;29.17;;;;;;;9.49;100.00;95929.88;1027453;28;20113;-54
2021/09/19 00:48:15;;;;;;;37.13;29.63;;;;;;;9.47;100.00;95929.16;1027570;28;20018;-52
2021/09/19 00:48:45;;;;;;;35.55;27.95;;;;;;;9.46;100.00;95930.94;1027635;28;20086;-50
2021/09/19 00:49:16;;;;;;;36.63;29.95;;;;;;;9.47;100.00;95932.59;1027763;28;20019;-52
2021/09/19 00:49:46;;;;;;;41.53;30.85;;;;;;;9.48;100.00;95929.06;1032152;28;20065;-51
2021/09/19 00:50:20;;;;;;;37.42;30.33;;;;;;;9.50;100.00;95926.34;1035621;28;20104;-51
2021/09/19 00:50:50;;;;;;;37.72;29.88;;;;;;;9.49;100.00;95929.88;1031602;28;20377;-52
2021/09/19 00:51:21;;;;;;;35.30;29.52;;;;;;;9.49;100.00;95929.88;1027588;28;20382;-51
2021/09/19 00:51:53;;;;;;;35.55;29.38;;;;;;;9.50;100.00;95928.97;1028495;28;20043;-51
2021/09/19 00:52:24;;;;;;;34.90;28.75;;;;;;;9.49;100.00;95925.47;1036545;28;20010;-52
2021/09/19 00:52:55;;;;;;;33.38;27.10;;;;;;;9.51;100.00;95926.22;1039476;28;20108;-51
2021/09/19 00:53:26;;;;;;;35.20;28.67;;;;;;;9.51;100.00;95923.59;1039591;28;20022;-51
2021/09/19 00:53:57;;;;;;;34.53;27.98;;;;;;;9.51;100.00;95928.00;1035584;28;20057;-52
2021/09/19 00:54:27;;;;;;;31.40;26.83;;;;;;;9.52;100.00;95925.28;1031680;28;20485;-51
2021/09/19 00:54:59;;;;;;;34.08;27.33;;;;;;;9.52;100.00;95927.91;1031482;28;20297;-52
2021/09/19 00:55:30;;;;;;;33.67;28.85;;;;;;;9.46;100.00;95910.00;1027882;28;20079;-50
2021/09/19 00:56:03;;;;;;;36.03;29.15;;;;;;;9.53;100.00;95919.13;1023779;28;20259;-51
2021/09/19 00:56:34;;;;;;;32.60;27.60;;;;;;;9.52;100.00;95925.28;1024055;28;20019;-51
2021/09/19 00:57:05;;;;;;;33.20;26.85;;;;;;;9.55;100.00;95924.22;1031621;28;20018;-52
2021/09/19 00:57:41;;;;;;;31.75;26.98;;;;;;;9.58;100.00;95923.22;1031596;28;20562;-51
2021/09/19 00:58:13;;;;;;;31.73;26.02;;;;;;;9.60;100.00;95916.94;1031475;28;20030;-51
2021/09/19 00:58:44;;;;;;;30.08;25.48;;;;;;;9.62;100.00;95925.50;1027529;28;20584;-52
2021/09/19 00:59:15;;;;;;;29.23;25.73;;;;;;;9.60;100.00;95916.09;1031409;28;20266;-52
2021/09/19 00:59:47;;;;;;;27.67;24.52;;;;;;;9.63;100.00;95915.88;1027589;28;20512;-51
2021/09/19 01:00:21;;;;;;;29.70;24.45;;;;;;;9.65;100.00;95924.47;1023471;29;20127;-51
2021/09/19 01:00:52;;;;;;;28.02;23.98;;;;;;;9.64;100.00;95915.78;1024380;28;20294;-51
2021/09/19 01:01:23;;;;;;;26.48;22.60;;;;;;;9.65;100.00;95919.25;1029316;28;20106;-52
2021/09/19 01:01:53;;;;;;;29.33;23.15;;;;;;;9.66;100.00;95913.88;1032628;28;20033;-53
2021/09/19 01:02:24;;;;;;;27.58;23.02;;;;;;;9.67;100.00;95914.75;1031379;28;20033;-53
2021/09/19 01:02:55;;;;;;;25.10;22.45;;;;;;;9.70;100.00;95907.53;1031307;28;20546;-52
2021/09/19 01:03:27;;;;;;;24.92;21.45;;;;;;;9.68;100.00;95909.38;1031493;28;20058;-50
2021/09/19 01:03:58;;;;;;;25.88;22.60;;;;;;;9.69;100.00;95907.63;1031403;28;20093;-49
2021/09/19 01:04:28;;;;;;;23.88;21.27;;;;;;;9.68;100.00;95906.78;1027777;28;20019;-51
2021/09/19 01:04:59;;;;;;;24.52;21.35;;;;;;;9.67;100.00;95901.66;1031594;28;20433;-51
2021/09/19 01:05:30;;;;;;;24.17;21.23;;;;;;;9.67;100.00;95902.50;1035607;28;20508;-51
2021/09/19 01:06:01;;;;;;;24.23;21.08;;;;;;;9.67;100.00;95899.06;1035640;28;20018;-52
2021/09/19 01:06:32;;;;;;;24.30;20.92;;;;;;;9.65;100.00;95901.78;1035529;28;20026;-49
2021/09/19 01:07:03;;;;;;;23.88;20.10;;;;;;;9.67;100.00;95897.25;1031876;28;20022;-52
2021/09/19 01:07:34;;;;;;;23.20;20.00;;;;;;;9.67;100.00;95899.06;1027337;28;20424;-51
2021/09/19 01:08:05;;;;;;;24.35;20.63;;;;;;;9.67;100.00;95897.25;1023495;29;20065;-51
2021/09/19 01:08:36;;;;;;;23.60;21.10;;;;;;;9.67;100.00;95896.44;1023505;29;20114;-51
2021/09/19 01:09:07;;;;;;;24.42;20.98;;;;;;;9.67;100.00;95893.81;1027467;28;20118;-51
2021/09/19 01:09:37;;;;;;;23.08;20.58;;;;;;;9.65;100.00;95886.06;1027457;28;20023;-51
2021/09/19 01:10:08;;;;;;;23.17;20.63;;;;;;;9.68;100.00;95890.25;1027720;28;20046;-50
2021/09/19 01:10:39;;;;;;;23.92;21.33;;;;;;;9.67;100.00;95883.34;1031432;28;20030;-53
2021/09/19 01:11:12;;;;;;;22.40;20.00;;;;;;;9.65;100.00;95887.84;1027485;28;20054;-51
2021/09/19 01:11:43;;;;;;;23.50;20.80;;;;;;;9.67;100.00;95889.41;1027497;28;20026;-51
2021/09/19 01:12:14;;;;;;;24.05;19.73;;;;;;;9.65;100.00;95887.84;1035539;28;20853;-51
2021/09/19 01:12:44;;;;;;;24.25;21.58;;;;;;;9.64;100.00;95883.56;1027427;28;20290;-52
2021/09/19 01:13:15;;;;;;;21.05;18.85;;;;;;;9.72;100.00;95883.88;1035309;28;20030;-53
2021/09/19 01:13:46;;;;;;;21.77;19.35;;;;;;;9.75;100.00;95882.84;1035559;28;20053;-51
2021/09/19 01:14:17;;;;;;;20.30;18.13;;;;;;;9.77;100.00;95883.56;1035546;28;20032;-52
2021/09/19 01:14:48;;;;;;;20.02;17.85;;;;;;;9.76;100.00;95882.75;1031737;28;20373;-51
2021/09/19 01:15:19;;;;;;;21.90;19.00;;;;;;;9.74;100.00;95879.34;1027434;28;20093;-54
2021/09/19 01:15:50;;;;;;;22.83;18.65;;;;;;;9.72;100.00;95876.88;1027448;28;20019;-51
2021/09/19 01:16:20;;;;;;;22.67;19.13;;;;;;;9.71;100.00;95880.41;1027522;28;20112;-50
2021/09/19 01:16:51;;;;;;;22.20;19.17;;;;;;;9.70;100.00;95876.13;1027343;28;20022;-53
2021/09/19 01:17:22;;;;;;;22.70;19.25;;;;;;;9.71;100.00;95876.97;1027804;28;20015;-51
2021/09/19 01:17:53;;;;;;;22.15;19.75;;;;;;;9.68;100.00;95872.75;1027478;28;20089;-53
2021/09/19 01:18:24;;;;;;;21.33;19.02;;;;;;;9.67;100.00;95873.72;1031431;28;20316;-51
2021/09/19 01:18:54;;;;;;;22.58;19.80;;;;;;;9.65;100.00;95872.16;1035483;28;20573;-52
2021/09/19 01:19:26;;;;;;;21.70;19.35;;;;;;;9.64;100.00;95871.31;1035539;28;20101;-54
2021/09/19 01:19:57;;;;;;;23.83;19.77;;;;;;;9.64;100.00;95865.25;1035303;28;20046;-52
2021/09/19 01:20:28;;;;;;;24.20;19.92;;;;;;;9.63;100.00;95868.78;1028424;28;20273;-51
2021/09/19 01:20:59;;;;;;;23.40;19.95;;;;;;;9.63;100.00;95866.16;1031411;28;20281;-54
2021/09/19 01:21:30;;;;;;;22.02;19.58;;;;;;;9.59;100.00;95865.56;1031664;28;20105;-51
2021/09/19 01:22:01;;;;;;;21.13;18.40;;;;;;;9.57;100.00;95856.13;1027482;28;20065;-51
2021/09/19 01:22:33;;;;;;;22.73;20.30;;;;;;;9.53;100.00;95848.50;1027914;28;20110;-51
2021/09/19 01:23:09;;;;;;;21.95;19.00;;;;;;;9.52;100.00;95861.69;1035263;28;20268;-51
2021/09/19 01:23:55;;;;;;;23.30;20.10;;;;;;;9.51;100.00;95857.38;1027358;28;20325;-52
2021/09/19 01:24:28;;;;;;;22.30;19.63;;;;;;;9.50;100.00;95856.56;1027692;28;20481;-52
2021/09/19 01:25:01;;;;;;;22.58;19.77;;;;;;;9.46;100.00;95849.88;1029846;28;20256;-52
2021/09/19 01:25:32;;;;;;;24.45;20.45;;;;;;;9.45;100.00;95852.56;1037638;28;20016;-53
2021/09/19 01:26:04;;;;;;;22.58;20.20;;;;;;;9.44;100.00;95848.28;1031412;28;20249;-51
2021/09/19 01:26:35;;;;;;;25.58;21.30;;;;;;;9.31;100.00;95837.81;1028296;28;20101;-51
2021/09/19 01:27:06;;;;;;;23.95;21.08;;;;;;;9.46;100.00;95851.63;1023412;29;20307;-52
2021/09/19 01:27:37;;;;;;;22.65;20.15;;;;;;;9.52;100.00;95851.22;1024909;28;20481;-51
2021/09/19 01:28:07;;;;;;;22.50;20.10;;;;;;;9.51;100.00;95854.78;1035733;28;20041;-53
2021/09/19 01:28:38;;;;;;;24.77;22.10;;;;;;;9.49;100.00;95854.88;1036066;28;20029;-51
2021/09/19 01:29:09;;;;;;;23.95;21.35;;;;;;;9.47;100.00;95856.75;1035387;28;20041;-51
2021/09/19 01:29:39;;;;;;;24.23;21.63;;;;;;;9.44;100.00;95850.88;1035759;28;20014;-54
2021/09/19 01:30:11;;;;;;;24.65;20.33;;;;;;;9.46;100.00;95849.00;1031575;28;20101;-51
2021/09/19 01:30:42;;;;;;;24.73;21.67;;;;;;;9.46;100.00;95851.63;1032240;28;20038;-53
2021/09/19 01:31:13;;;;;;;22.98;20.52;;;;;;;9.47;100.00;95850.69;1031400;28;20631;-52
2021/09/19 01:31:44;;;;;;;24.48;21.70;;;;;;;9.46;100.00;95852.47;1027780;28;20077;-52
2021/09/19 01:32:18;;;;;;;23.40;20.40;;;;;;;9.45;100.00;95855.19;1031516;28;20257;-52
2021/09/19 01:32:49;;;;;;;25.45;21.45;;;;;;;9.42;100.00;95847.53;1031291;28;20499;-51
2021/09/19 01:33:20;;;;;;;26.13;21.90;;;;;;;9.44;100.00;95853.50;1028138;28;20258;-54
2021/09/19 01:33:50;;;;;;;29.05;22.83;;;;;;;9.43;100.00;95851.84;1023567;29;20362;-51
2021/09/19 01:34:21;;;;;;;26.83;21.13;;;;;;;9.41;100.00;95845.88;1023698;28;20098;-51
2021/09/19 01:34:52;;;;;;;25.65;21.58;;;;;;;9.39;100.00;95853.81;1027613;28;20021;-51
2021/09/19 01:35:22;;;;;;;23.88;20.92;;;;;;;9.36;100.00;95848.78;1031597;28;20022;-51
2021/09/19 01:35:57;;;;;;;26.20;21.65;;;;;;;9.39;100.00;95851.22;1031822;28;20038;-50
2021/09/19 01:36:32;;;;;;;27.55;22.20;;;;;;;9.39;100.00;95860.84;1035553;28;20028;-51
2021/09/19 01:37:07;;;;;;;25.70;21.88;;;;;;;9.37;100.00;95849.66;1032882;28;20253;-51
2021/09/19 01:37:38;;;;;;;27.35;22.25;;;;;;;9.38;100.00;95843.47;1029289;28;20656;-54
2021/09/19 01:38:09;;;;;;;27.88;21.33;;;;;;;9.37;100.00;95854.88;1031582;28;20277;-51
2021/09/19 01:38:39;;;;;;;25.75;21.98;;;;;;;9.32;100.00;95845.53;1031558;28;20023;-51
2021/09/19 01:39:10;;;;;;;24.15;21.55;;;;;;;9.35;100.00;95852.38;1031673;28;20041;-53
2021/09/19 01:39:41;;;;;;;26.17;22.00;;;;;;;9.33;100.00;95849.03;1031534;28;20018;-51
2021/09/19 01:40:12;;;;;;;26.02;21.63;;;;;;;9.32;100.00;95840.31;1035767;28;20014;-51
2021/09/19 01:40:43;;;;;;;28.08;22.73;;;;;;;9.29;100.00;95844.91;1031443;28;20014;-51
2021/09/19 01:41:23;;;;;;;26.85;22.40;;;;;;;9.25;100.00;95843.44;1027454;28;20251;-51
2021/09/19 01:41:54;;;;;;;27.48;22.42;;;;;;;9.29;100.00;95847.53;1028933;28;20382;-51
2021/09/19 01:42:26;;;;;;;26.23;22.45;;;;;;;9.27;100.00;95846.78;1030279;28;20076;-54
2021/09/19 01:42:57;;;;;;;26.77;22.23;;;;;;;9.27;100.00;95844.19;1037085;28;20014;-51
2021/09/19 01:43:28;;;;;;;27.17;22.60;;;;;;;9.27;100.00;95842.41;1035553;28;20306;-51
2021/09/19 01:43:58;;;;;;;28.63;22.40;;;;;;;9.24;100.00;95847.84;1032111;28;20018;-53
2021/09/19 01:44:30;;;;;;;26.70;22.45;;;;;;;9.25;100.00;95846.06;1035903;28;20053;-51
2021/09/19 01:45:01;;;;;;;25.83;21.38;;;;;;;9.27;100.00;95852.88;1032249;28;20113;-51
2021/09/19 01:45:32;;;;;;;26.05;22.15;;;;;;;9.27;100.00;95844.19;1028226;28;20262;-51
2021/09/19 01:46:03;;;;;;;26.45;22.35;;;;;;;9.25;100.00;95839.06;1024129;29;20030;-54
2021/09/19 01:46:34;;;;;;;24.17;21.52;;;;;;;9.27;100.00;95849.41;1024567;28;20496;-50
2021/09/19 01:47:05;;;;;;;23.83;21.17;;;;;;;9.30;100.00;95841.38;1029451;28;20334;-50
2021/09/19 01:47:36;;;;;;;27.13;21.55;;;;;;;9.29;100.00;95843.16;1040423;28;20335;-51
2021/09/19 01:48:07;;;;;;;29.25;23.60;;;;;;;9.28;100.00;95844.09;1040321;28;20017;-51
2021/09/19 01:48:38;;;;;;;26.20;22.65;;;;;;;9.27;100.00;95846.78;1040481;28;20736;-51
2021/09/19 01:49:09;;;;;;;26.45;22.67;;;;;;;9.27;100.00;95845.03;1032205;28;20545;-53
2021/09/19 01:49:47;;;;;;;25.95;22.05;;;;;;;9.27;100.00;95844.19;1032121;28;20056;-51
2021/09/19 01:50:20;;;;;;;27.10;22.02;;;;;;;9.27;100.00;95842.41;1032121;28;20118;-50
2021/09/19 01:50:51;;;;;;;24.90;20.77;;;;;;;9.28;100.00;95843.25;1035387;28;20312;-52
2021/09/19 01:51:21;;;;;;;24.65;21.85;;;;;;;9.27;100.00;95841.56;1037775;28;20284;-50
2021/09/19 01:51:52;;;;;;;24.42;21.33;;;;;;;9.26;100.00;95840.72;1032609;28;20018;-50
2021/09/19 01:52:23;;;;;;;29.00;22.25;;;;;;;9.26;100.00;95835.50;1036168;28;20113;-51
2021/09/19 01:52:54;;;;;;;24.27;21.20;;;;;;;9.28;100.00;95840.63;1032090;28;20059;-50
2021/09/19 01:53:25;;;;;;;26.15;21.38;;;;;;;9.29;100.00;95835.31;1032647;28;20049;-51
2021/09/19 01:53:55;;;;;;;24.38;21.15;;;;;;;9.29;100.00;95843.16;1036324;28;20022;-52
2021/09/19 01:54:27;;;;;;;24.38;21.65;;;;;;;9.30;100.00;95836.13;1036479;28;20527;-51
2021/09/19 01:54:59;;;;;;;23.17;20.75;;;;;;;9.29;100.00;95832.69;1036820;28;20018;-50
2021/09/19 01:55:30;;;;;;;24.40;21.35;;;;;;;9.31;100.00;95838.66;1040951;28;20256;-49
2021/09/19 01:56:01;;;;;;;24.70;22.00;;;;;;;9.32;100.00;95831.63;1040280;28;20538;-51
2021/09/19 01:56:32;;;;;;;27.73;21.95;;;;;;;9.31;100.00;95830.81;1040256;28;20021;-49
2021/09/19 01:57:02;;;;;;;25.48;21.38;;;;;;;9.32;100.00;95832.47;1036296;28;20100;-51
2021/09/19 01:57:33;;;;;;;26.67;21.98;;;;;;;9.32;100.00;95832.47;1028530;28;20527;-54
2021/09/19 01:58:03;;;;;;;23.65;20.80;;;;;;;9.31;100.00;95835.22;1024135;29;20057;-51
2021/09/19 01:58:43;;;;;;;27.02;22.77;;;;;;;9.32;100.00;95831.63;1028173;28;20117;-51
2021/09/19 01:59:14;;;;;;;24.55;21.60;;;;;;;9.32;100.00;95836.88;1028120;28;20031;-51
2021/09/19 01:59:47;;;;;;;24.27;20.08;;;;;;;9.34;100.00;95840.22;1031122;28;20026;-53
2021/09/19 02:00:18;;;;;;;26.13;21.23;;;;;;;9.32;100.00;95834.25;1033814;28;20018;-52
2021/09/19 02:00:49;;;;;;;24.52;20.40;;;;;;;9.32;100.00;95837.69;1036190;28;20792;-51
2021/09/19 02:01:22;;;;;;;25.33;21.58;;;;;;;9.31;100.00;95838.66;1036303;28;20026;-51
2021/09/19 02:01:53;;;;;;;24.83;22.13;;;;;;;9.29;100.00;95830.09;1033402;28;20018;-52
2021/09/19 02:02:25;;;;;;;26.58;20.85;;;;;;;9.19;100.00;95813.31;1032042;28;20340;-53
2021/09/19 02:02:55;;;;;;;26.25;21.50;;;;;;;9.29;100.00;95835.31;1032538;28;20065;-51
2021/09/19 02:03:26;;;;;;;26.92;22.13;;;;;;;9.27;100.00;95837.19;1032099;28;20762;-51
2021/09/19 02:03:57;;;;;;;25.83;22.63;;;;;;;9.27;100.00;95839.81;1032479;28;20448;-52
2021/09/19 02:04:28;;;;;;;28.00;21.67;;;;;;;9.28;100.00;95831.00;1028105;28;20345;-52
2021/09/19 02:04:58;;;;;;;23.48;20.92;;;;;;;9.28;100.00;95836.22;1024329;28;20023;-50
2021/09/19 02:05:29;;;;;;;26.50;22.10;;;;;;;9.29;100.00;95837.94;1028383;28;20025;-53
2021/09/19 02:06:00;;;;;;;29.00;23.50;;;;;;;9.29;100.00;95831.84;1040185;28;20410;-52
2021/09/19 02:06:31;;;;;;;27.45;21.55;;;;;;;9.32;100.00;95834.25;1040505;28;20045;-49
2021/09/19 02:07:02;;;;;;;24.10;20.38;;;;;;;9.37;100.00;95837.41;1040308;28;20518;-51
2021/09/19 02:07:35;;;;;;;24.45;21.67;;;;;;;9.40;100.00;95829.34;1031995;28;20500;-51
2021/09/19 02:08:06;;;;;;;22.65;20.25;;;;;;;9.38;100.00;95836.44;1028139;28;20139;-51
2021/09/19 02:08:36;;;;;;;23.67;20.10;;;;;;;9.38;100.00;95836.44;1028056;28;20266;-51
2021/09/19 02:09:07;;;;;;;23.13;19.70;;;;;;;9.39;100.00;95838.13;1036128;28;20849;-51
2021/09/19 02:09:38;;;;;;;23.75;20.08;;;;;;;9.40;100.00;95831.13;1032190;28;20544;-52
2021/09/19 02:10:11;;;;;;;24.67;21.27;;;;;;;9.40;100.00;95834.56;1032392;28;20065;-51
2021/09/19 02:10:42;;;;;;;24.55;20.75;;;;;;;9.39;100.00;95835.53;1036702;28;20018;-53
2021/09/19 02:11:14;;;;;;;23.35;20.85;;;;;;;9.39;100.00;95832.91;1031468;28;20250;-51
2021/09/19 02:11:45;;;;;;;24.67;21.95;;;;;;;9.38;100.00;95828.59;1027991;28;20011;-51
2021/09/19 02:12:15;;;;;;;24.10;20.77;;;;;;;9.38;100.00;95833.84;1036083;28;20018;-50
2021/09/19 02:12:46;;;;;;;25.42;21.55;;;;;;;9.37;100.00;95828.72;1035887;28;20018;-51
2021/09/19 02:13:16;;;;;;;23.92;21.25;;;;;;;9.36;100.00;95832.28;1036077;28;20017;-50
2021/09/19 02:13:48;;;;;;;25.20;20.27;;;;;;;9.37;100.00;95836.56;1028075;28;20089;-51
2021/09/19 02:14:18;;;;;;;24.73;20.70;;;;;;;9.37;100.00;95828.72;1024116;29;20537;-51
2021/09/19 02:14:49;;;;;;;24.98;21.33;;;;;;;9.37;100.00;95829.56;1028061;28;20254;-50
2021/09/19 02:15:20;;;;;;;24.13;20.38;;;;;;;9.36;100.00;95822.66;1028041;28;20059;-51
2021/09/19 02:15:50;;;;;;;24.80;21.02;;;;;;;9.39;100.00;95835.53;1032030;28;20452;-51
2021/09/19 02:16:22;;;;;;;22.08;19.52;;;;;;;9.39;100.00;95832.91;1036180;28;20410;-51
2021/09/19 02:16:53;;;;;;;23.10;20.13;;;;;;;9.36;100.00;95827.88;1032062;28;20014;-50
2021/09/19 02:17:23;;;;;;;22.02;19.55;;;;;;;9.34;100.00;95832.38;1028340;28;20027;-51
2021/09/19 02:17:54;;;;;;;23.80;20.40;;;;;;;9.31;100.00;95830.81;1028220;28;20054;-51
2021/09/19 02:18:25;;;;;;;24.85;20.75;;;;;;;9.28;100.00;95828.41;1032054;28;20109;-52
2021/09/19 02:18:56;;;;;;;25.83;20.92;;;;;;;9.26;100.00;95832.88;1032142;28;20101;-51
2021/09/19 02:19:27;;;;;;;25.00;20.50;;;;;;;9.25;100.00;95831.22;1040199;28;20013;-51
2021/09/19 02:19:58;;;;;;;24.73;21.10;;;;;;;9.22;100.00;95831.44;1036089;28;20472;-52
2021/09/19 02:20:29;;;;;;;23.92;20.75;;;;;;;9.22;100.00;95828.81;1032071;28;20026;-51
2021/09/19 02:21:00;;;;;;;24.92;20.33;;;;;;;9.25;100.00;95827.75;1036191;28;20483;-51
2021/09/19 02:21:31;;;;;;;24.58;20.85;;;;;;;9.24;100.00;95828.72;1036402;28;20189;-52
2021/09/19 02:22:02;;;;;;;26.92;21.67;;;;;;;9.21;100.00;95821.91;1028594;28;20081;-50
2021/09/19 02:22:33;;;;;;;22.83;20.27;;;;;;;9.20;100.00;95835.09;1032111;28;20647;-50
2021/09/19 02:23:04;;;;;;;24.05;20.38;;;;;;;9.19;100.00;95828.19;1027723;28;20263;-51
2021/09/19 02:23:34;;;;;;;23.92;20.52;;;;;;;9.16;100.00;95831.84;1023821;28;20396;-52